createdAt,value
2023-01-08T00:02:05.528Z,99221.03
2023-01-08T00:04:34.675Z,99201.88
2023-01-08T00:07:02.694Z,99360.78
2023-01-08T00:09:30.846Z,99342.78
2023-01-08T00:11:58.722Z,99379.94
2023-01-08T00:14:26.802Z,99373.84
2023-01-08T00:16:54.949Z,99183.34
2023-01-08T00:19:22.783Z,99384.06
2023-01-08T00:21:52.315Z,99351.63
2023-01-08T00:24:20.935Z,99184.50
2023-01-08T00:26:48.777Z,99286.97
2023-01-08T00:29:16.987Z,99316.88
2023-01-08T00:31:45.351Z,99291.72
2023-01-08T00:34:13.252Z,99368.50
2023-01-08T00:36:41.156Z,99382.66
2023-01-08T00:39:10.500Z,99386.28
2023-01-08T00:41:38.354Z,99377.09
2023-01-08T00:44:06.572Z,99381.03
2023-01-08T00:46:34.416Z,99348.59
2023-01-08T00:49:02.664Z,99268.06
2023-01-08T00:51:30.723Z,99349.88
2023-01-08T00:53:58.843Z,99312.72
2023-01-08T00:56:28.314Z,99330.13
2023-01-08T00:58:56.851Z,99329.25
2023-01-08T01:01:25.017Z,99310.91
2023-01-08T01:03:52.958Z,99337.31
2023-01-08T01:06:20.970Z,99337.47
2023-01-08T01:08:49.001Z,99331.25
2023-01-08T01:11:20.477Z,99321.16
2023-01-08T01:13:50.300Z,99246.75
2023-01-08T01:16:18.667Z,99323.38
2023-01-08T01:18:46.522Z,99150.28
2023-01-08T01:21:18.967Z,99329.59
2023-01-08T01:23:46.760Z,99317.56
2023-01-08T01:26:19.114Z,99220.09
2023-01-08T01:28:51.504Z,99324.34
2023-01-08T01:31:21.161Z,99259.09
2023-01-08T01:33:49.601Z,99317.41
2023-01-08T01:36:19.226Z,99251.59
2023-01-08T01:38:48.262Z,99325.19
2023-01-08T01:41:24.541Z,99320.50
2023-01-08T01:43:54.651Z,99129.94
2023-01-08T01:46:29.419Z,99311.63
2023-01-08T01:49:01.734Z,99306.56
2023-01-08T01:51:33.728Z,99312.31
2023-01-08T01:54:03.534Z,99311.19
2023-01-08T01:56:33.145Z,99308.00
2023-01-08T01:59:02.776Z,99283.75
2023-01-08T02:01:32.225Z,99317.28
2023-01-08T02:04:00.280Z,99262.84
2023-01-08T02:06:38.370Z,99318.41
2023-01-08T02:09:15.569Z,99326.91
2023-01-08T02:12:09.818Z,99272.72
2023-01-08T02:14:45.352Z,99316.06
2023-01-08T02:17:18.953Z,99309.44
2023-01-08T02:19:52.319Z,99316.00
2023-01-08T02:22:29.539Z,99316.81
2023-01-08T02:25:03.312Z,99319.53
2023-01-08T02:27:35.224Z,99292.13
2023-01-08T02:30:06.883Z,99287.06
2023-01-08T02:32:38.757Z,99312.91
2023-01-08T02:35:08.186Z,99318.88
2023-01-08T02:37:36.724Z,99131.53
2023-01-08T02:40:12.483Z,99312.03
2023-01-08T02:42:48.869Z,99309.44
2023-01-08T02:45:36.806Z,99220.19
2023-01-08T02:48:11.132Z,99300.06
2023-01-08T02:50:42.662Z,99317.22
2023-01-08T02:53:15.538Z,99240.84
2023-01-08T02:55:48.158Z,99308.50
2023-01-08T02:58:18.336Z,99304.09
2023-01-08T03:00:47.887Z,99315.13
2023-01-08T03:03:19.408Z,99226.59
2023-01-08T03:05:50.579Z,99285.53
2023-01-08T03:08:20.122Z,99267.59
2023-01-08T03:10:52.670Z,99106.16
2023-01-08T03:13:28.215Z,99231.88
2023-01-08T03:16:00.217Z,99297.16
2023-01-08T03:18:34.297Z,99295.59
2023-01-08T03:21:03.263Z,99262.53
2023-01-08T03:23:33.897Z,99225.41
2023-01-08T03:26:02.909Z,99295.75
2023-01-08T03:28:36.748Z,99272.47
2023-01-08T03:31:06.149Z,99283.16
2023-01-08T03:33:35.264Z,99288.59
2023-01-08T03:36:06.144Z,99170.69
2023-01-08T03:38:37.953Z,99248.69
2023-01-08T03:41:10.251Z,99264.13
2023-01-08T03:43:39.605Z,99199.19
2023-01-08T03:46:12.933Z,99234.53
2023-01-08T03:48:42.403Z,99262.56
2023-01-08T03:51:11.009Z,99202.22
2023-01-08T03:53:39.165Z,99160.47
2023-01-08T03:56:07.899Z,99245.25
2023-01-08T03:58:35.878Z,99256.91
2023-01-08T04:01:05.231Z,99256.44
2023-01-08T04:03:33.080Z,99241.81
2023-01-08T04:06:01.046Z,99248.34
2023-01-08T04:08:28.817Z,99236.06
2023-01-08T04:10:56.745Z,99160.66
2023-01-08T04:13:24.646Z,99194.53
2023-01-08T04:15:53.185Z,99096.84
2023-01-08T04:18:22.496Z,99215.41
2023-01-08T04:20:50.414Z,99223.97
2023-01-08T04:23:18.268Z,99200.78
2023-01-08T04:25:46.127Z,99189.94
2023-01-08T04:28:14.117Z,99158.66
2023-01-08T04:30:42.163Z,99209.44
2023-01-08T04:33:10.070Z,99212.25
2023-01-08T04:35:39.253Z,99202.16
2023-01-08T04:38:07.228Z,99213.44
2023-01-08T04:40:35.599Z,99122.28
2023-01-08T04:43:03.527Z,99206.22
2023-01-08T04:45:31.482Z,99207.94
2023-01-08T04:48:00.381Z,99206.81
2023-01-08T04:50:28.751Z,99211.13
2023-01-08T04:53:00.382Z,99204.38
2023-01-08T04:55:28.242Z,99186.09
2023-01-08T04:57:56.177Z,99164.03
2023-01-08T05:00:23.989Z,99076.03
2023-01-08T05:02:51.948Z,99149.56
2023-01-08T05:05:20.001Z,99169.38
2023-01-08T05:07:47.881Z,99199.88
2023-01-08T05:10:17.382Z,99194.31
2023-01-08T05:12:45.183Z,99196.41
2023-01-08T05:15:13.311Z,99186.84
2023-01-08T05:17:41.277Z,99184.34
2023-01-08T05:20:10.608Z,99195.44
2023-01-08T05:22:38.442Z,99191.81
2023-01-08T05:25:07.106Z,99016.00
2023-01-08T05:27:36.452Z,99021.47
2023-01-08T05:30:04.535Z,99173.50
2023-01-08T05:32:32.534Z,99186.53
2023-01-08T05:35:00.564Z,99153.59
2023-01-08T05:37:28.561Z,99153.59
2023-01-08T05:39:56.329Z,99174.59
2023-01-08T05:42:24.138Z,98989.69
2023-01-08T05:44:53.413Z,99177.97
2023-01-08T05:47:21.297Z,99174.19
2023-01-08T05:49:49.321Z,99004.28
2023-01-08T05:52:17.290Z,99141.19
2023-01-08T05:54:45.135Z,99176.81
2023-01-08T05:57:13.317Z,99182.13
2023-01-08T05:59:41.191Z,99166.78
2023-01-08T06:02:10.765Z,99168.84
2023-01-08T06:04:38.931Z,99176.38
2023-01-08T06:07:06.771Z,99129.78
2023-01-08T06:09:34.596Z,99164.44
2023-01-08T06:12:02.373Z,99096.94
2023-01-08T06:14:30.228Z,99171.41
2023-01-08T06:16:58.120Z,99091.59
2023-01-08T06:19:27.792Z,99164.28
2023-01-08T06:21:55.993Z,99167.88
2023-01-08T06:24:24.035Z,99172.91
2023-01-08T06:26:52.081Z,99174.94
2023-01-08T06:29:20.296Z,99172.06
2023-01-08T06:31:48.461Z,99135.53
2023-01-08T06:34:16.860Z,99164.34
2023-01-08T06:36:46.140Z,99176.38
2023-01-08T06:39:15.256Z,99091.66
2023-01-08T06:41:43.980Z,99183.75
2023-01-08T06:44:11.917Z,99096.50
2023-01-08T06:46:40.557Z,99183.19
2023-01-08T06:49:08.989Z,99182.00
2023-01-08T06:51:37.554Z,99146.31
2023-01-08T06:54:07.104Z,99179.06
2023-01-08T06:56:45.487Z,99116.38
2023-01-08T06:59:16.932Z,99170.56
2023-01-08T07:01:45.028Z,99017.72
2023-01-08T07:04:12.989Z,99178.84
2023-01-08T07:06:40.882Z,99181.88
2023-01-08T07:09:13.029Z,99184.66
2023-01-08T07:11:41.115Z,99147.53
2023-01-08T07:14:09.500Z,99151.69
2023-01-08T07:16:37.545Z,99179.72
2023-01-08T07:19:05.686Z,99173.66
2023-01-08T07:21:33.589Z,99097.38
2023-01-08T07:24:01.513Z,99172.50
2023-01-08T07:26:30.710Z,99023.38
2023-01-08T07:28:58.682Z,99165.66
2023-01-08T07:31:26.652Z,99184.78
2023-01-08T07:33:54.561Z,99176.13
2023-01-08T07:36:22.422Z,99141.78
2023-01-08T07:38:50.570Z,99187.66
2023-01-08T07:41:19.551Z,99177.84
2023-01-08T07:43:49.797Z,99187.66
2023-01-08T07:46:17.592Z,99182.47
2023-01-08T07:48:45.571Z,99168.31
2023-01-08T07:51:13.579Z,99068.88
2023-01-08T07:53:41.518Z,99152.50
2023-01-08T07:56:11.600Z,99173.06
2023-01-08T07:58:39.829Z,99175.91
2023-01-08T08:01:12.226Z,99179.34
2023-01-08T08:03:40.729Z,99171.25
2023-01-08T08:06:09.236Z,99084.31
2023-01-08T08:08:37.304Z,99171.56
2023-01-08T08:11:05.625Z,99168.28
2023-01-08T08:13:33.500Z,99154.19
2023-01-08T08:16:05.286Z,99170.69
2023-01-08T08:18:34.570Z,99155.91
2023-01-08T08:21:02.445Z,99167.09
2023-01-08T08:23:30.472Z,99122.28
2023-01-08T08:25:58.584Z,99163.09
2023-01-08T08:28:26.578Z,99013.84
2023-01-08T08:30:54.449Z,99031.75
2023-01-08T08:33:22.401Z,99073.66
2023-01-08T08:35:52.378Z,99158.03
2023-01-08T08:38:23.173Z,99157.72
2023-01-08T08:40:52.116Z,99144.44
2023-01-08T08:43:20.443Z,99145.66
2023-01-08T08:45:48.331Z,99129.34
2023-01-08T08:48:17.109Z,99137.38
2023-01-08T08:50:45.177Z,99140.75
2023-01-08T08:53:14.380Z,99141.41
2023-01-08T08:55:42.233Z,99136.97
2023-01-08T08:58:11.752Z,99134.16
2023-01-08T09:00:40.612Z,99129.28
2023-01-08T09:03:12.216Z,99138.97
2023-01-08T09:05:40.196Z,99066.88
2023-01-08T09:08:08.122Z,99139.19
2023-01-08T09:10:38.279Z,99032.13
2023-01-08T09:13:06.383Z,99111.53
2023-01-08T09:15:34.420Z,99140.22
2023-01-08T09:18:02.340Z,99127.38
2023-01-08T09:20:30.169Z,99140.59
2023-01-08T09:23:00.563Z,99142.78
2023-01-08T09:25:28.788Z,99147.50
2023-01-08T09:28:02.417Z,99131.97
2023-01-08T09:30:30.923Z,99118.13
2023-01-08T09:33:02.313Z,99139.66
2023-01-08T09:35:31.123Z,99145.78
2023-01-08T09:37:59.500Z,99145.00
2023-01-08T09:40:33.335Z,99129.91
2023-01-08T09:43:06.212Z,99135.03
2023-01-08T09:45:36.878Z,99144.06
2023-01-08T09:48:08.745Z,99050.72
2023-01-08T09:50:37.719Z,99133.69
2023-01-08T09:53:05.557Z,99137.78
2023-01-08T09:55:35.373Z,98921.31
2023-01-08T09:58:04.680Z,99136.69
2023-01-08T10:00:35.675Z,99128.03
2023-01-08T10:03:03.697Z,99145.72
2023-01-08T10:05:31.834Z,99138.38
2023-01-08T10:07:59.795Z,99125.38
2023-01-08T10:10:30.788Z,99129.06
2023-01-08T10:12:59.616Z,99127.00
2023-01-08T10:15:29.053Z,99141.06
2023-01-08T10:18:03.279Z,99070.53
2023-01-08T10:20:32.349Z,99102.06
2023-01-08T10:23:11.885Z,99097.50
2023-01-08T10:25:52.443Z,99106.00
2023-01-08T10:28:23.600Z,99112.03
2023-01-08T10:30:54.708Z,99109.75
2023-01-08T10:33:26.822Z,99123.19
2023-01-08T10:35:59.024Z,98981.47
2023-01-08T10:38:33.769Z,99107.28
2023-01-08T10:41:04.463Z,99101.31
2023-01-08T10:43:36.351Z,99111.94
2023-01-08T10:46:08.925Z,99098.75
2023-01-08T10:48:39.909Z,99105.44
2023-01-08T10:51:15.843Z,99088.75
2023-01-08T10:53:44.135Z,99061.81
2023-01-08T10:56:22.207Z,99094.03
2023-01-08T10:58:51.423Z,99084.53
2023-01-08T11:01:26.003Z,99044.91
2023-01-08T11:03:57.941Z,98995.38
2023-01-08T11:06:29.199Z,99082.56
2023-01-08T11:09:01.594Z,99020.91
2023-01-08T11:11:34.243Z,99082.41
2023-01-08T11:14:04.640Z,99017.91
2023-01-08T11:16:36.269Z,99073.06
2023-01-08T11:19:05.221Z,99073.59
2023-01-08T11:21:36.118Z,99074.09
2023-01-08T11:24:18.121Z,99076.53
2023-01-08T11:26:52.541Z,99072.91
2023-01-08T11:29:25.679Z,99069.81
2023-01-08T11:32:01.636Z,99072.38
2023-01-08T11:34:34.988Z,99068.75
2023-01-08T11:37:08.855Z,99070.97
2023-01-08T11:39:39.799Z,98979.69
2023-01-08T11:42:45.444Z,99054.09
2023-01-08T11:45:23.105Z,99066.66
2023-01-08T11:48:14.626Z,99069.94
2023-01-08T11:50:55.428Z,99048.53
2023-01-08T11:53:30.619Z,98991.94
2023-01-08T11:56:12.247Z,99049.41
2023-01-08T11:58:55.620Z,99035.44
2023-01-08T12:01:43.876Z,99037.16
2023-01-08T12:04:32.574Z,99009.09
2023-01-08T12:07:09.884Z,99034.72
2023-01-08T12:09:42.830Z,99029.19
2023-01-08T12:12:20.362Z,98914.56
2023-01-08T12:14:59.645Z,99022.41
2023-01-08T12:17:40.310Z,99024.41
2023-01-08T12:20:21.411Z,99017.41
2023-01-08T12:23:03.361Z,99001.34
2023-01-08T12:26:01.209Z,98982.28
2023-01-08T12:29:03.739Z,98999.88
2023-01-08T12:32:05.677Z,98953.59
2023-01-08T12:34:43.058Z,98852.88
2023-01-08T12:37:16.434Z,98976.00
2023-01-08T12:39:51.425Z,98971.41
2023-01-08T12:42:24.595Z,98966.97
2023-01-08T12:44:55.441Z,98953.03
2023-01-08T12:47:28.529Z,98954.78
2023-01-08T12:50:06.168Z,98965.91
2023-01-08T12:52:43.300Z,98957.00
2023-01-08T12:55:22.370Z,98952.78
2023-01-08T12:57:57.811Z,98925.19
2023-01-08T13:00:32.715Z,98946.06
2023-01-08T13:03:03.137Z,98953.06
2023-01-08T13:05:34.566Z,98941.13
2023-01-08T13:08:06.741Z,98936.59
2023-01-08T13:10:38.900Z,98860.00
2023-01-08T13:13:08.317Z,98918.81
2023-01-08T13:15:37.644Z,98929.47
2023-01-08T13:18:16.860Z,98899.13
2023-01-08T13:20:56.141Z,98923.81
2023-01-08T13:23:27.661Z,98912.06
2023-01-08T13:25:57.594Z,98911.84
2023-01-08T13:28:31.615Z,98904.63
2023-01-08T13:31:10.753Z,98902.44
2023-01-08T13:33:41.855Z,98891.16
2023-01-08T13:36:32.088Z,98892.75
2023-01-08T13:39:04.652Z,98894.50
2023-01-08T13:41:34.304Z,98873.44
2023-01-08T13:44:06.158Z,98863.59
2023-01-08T13:46:37.950Z,98874.78
2023-01-08T13:49:07.932Z,98875.72
2023-01-08T13:51:43.356Z,98878.41
2023-01-08T13:54:22.016Z,98818.59
2023-01-08T13:56:54.846Z,98873.22
2023-01-08T13:59:35.355Z,98871.78
2023-01-08T14:02:03.761Z,98876.75
2023-01-08T14:04:31.603Z,98856.53
2023-01-08T14:07:15.468Z,98865.25
2023-01-08T14:09:44.695Z,98870.03
2023-01-08T14:12:15.681Z,98871.75
2023-01-08T14:14:48.592Z,98864.41
2023-01-08T14:17:18.260Z,98810.88
2023-01-08T14:19:46.891Z,98860.50
2023-01-08T14:22:20.501Z,98852.63
2023-01-08T14:24:55.420Z,98871.06
2023-01-08T14:27:25.937Z,98864.88
2023-01-08T14:29:54.324Z,98858.16
2023-01-08T14:32:24.185Z,98859.69
2023-01-08T14:34:54.073Z,98847.81
2023-01-08T14:37:21.988Z,98863.06
2023-01-08T14:39:54.504Z,98868.69
2023-01-08T14:42:44.499Z,98867.69
2023-01-08T14:45:19.648Z,98862.53
2023-01-08T14:47:49.743Z,98866.34
2023-01-08T14:50:24.793Z,98866.25
2023-01-08T14:52:53.959Z,98845.84
2023-01-08T14:55:23.624Z,98862.38
2023-01-08T14:57:55.502Z,98859.66
2023-01-08T15:00:26.365Z,98805.69
2023-01-08T15:02:54.343Z,98828.00
2023-01-08T15:05:27.859Z,98841.53
2023-01-08T15:07:59.730Z,98848.63
2023-01-08T15:10:38.364Z,98833.63
2023-01-08T15:13:08.539Z,98843.84
2023-01-08T15:15:39.091Z,98841.19
2023-01-08T15:18:09.003Z,98810.94
2023-01-08T15:20:37.618Z,98841.28
2023-01-08T15:23:05.649Z,98806.38
2023-01-08T15:25:35.003Z,98829.22
2023-01-08T15:28:04.640Z,98833.00
2023-01-08T15:30:37.295Z,98829.66
2023-01-08T15:33:10.281Z,98777.50
2023-01-08T15:35:38.167Z,98832.66
2023-01-08T15:38:08.848Z,98835.75
2023-01-08T15:40:38.159Z,98826.38
2023-01-08T15:43:10.729Z,98813.28
2023-01-08T15:45:39.952Z,98813.78
2023-01-08T15:48:08.643Z,98789.75
2023-01-08T15:50:38.890Z,98808.19
2023-01-08T15:53:07.757Z,98810.59
2023-01-08T15:55:36.508Z,98794.91
2023-01-08T15:58:05.918Z,98805.50
2023-01-08T16:00:34.063Z,98809.75
2023-01-08T16:03:03.239Z,98807.66
2023-01-08T16:05:32.887Z,98805.22
2023-01-08T16:08:01.086Z,98805.59
2023-01-08T16:10:29.256Z,98786.13
2023-01-08T16:12:57.676Z,98808.09
2023-01-08T16:15:28.033Z,98804.00
2023-01-08T16:17:56.082Z,98763.38
2023-01-08T16:20:23.953Z,98806.16
2023-01-08T16:22:52.099Z,98799.19
2023-01-08T16:25:20.284Z,98710.88
2023-01-08T16:27:48.133Z,98810.22
2023-01-08T16:30:16.585Z,98804.63
2023-01-08T16:32:47.476Z,98797.34
2023-01-08T16:35:15.399Z,98790.34
2023-01-08T16:37:43.230Z,98807.09
2023-01-08T16:40:12.229Z,98805.22
2023-01-08T16:42:40.400Z,98808.56
2023-01-08T16:45:09.610Z,98813.72
2023-01-08T16:47:38.729Z,98757.31
2023-01-08T16:50:11.528Z,98815.41
2023-01-08T16:52:39.955Z,98819.19
2023-01-08T16:55:10.474Z,98782.78
2023-01-08T16:57:38.628Z,98787.91
2023-01-08T17:00:08.360Z,98786.56
2023-01-08T17:02:36.312Z,98795.75
2023-01-08T17:05:04.291Z,98805.63
2023-01-08T17:07:35.238Z,98813.97
2023-01-08T17:10:03.190Z,98815.22
2023-01-08T17:12:31.206Z,98806.38
2023-01-08T17:14:59.102Z,98732.13
2023-01-08T17:17:26.975Z,98778.38
2023-01-08T17:19:54.998Z,98806.28
2023-01-08T17:22:22.912Z,98788.75
2023-01-08T17:24:52.430Z,98795.44
2023-01-08T17:27:20.356Z,98801.28
2023-01-08T17:29:48.298Z,98797.75
2023-01-08T17:32:16.093Z,98790.63
2023-01-08T17:34:43.994Z,98792.16
2023-01-08T17:37:11.888Z,98793.44
2023-01-08T17:39:39.789Z,98788.84
2023-01-08T17:42:25.380Z,98777.81
2023-01-08T17:44:53.482Z,98778.56
2023-01-08T17:47:21.331Z,98772.72
2023-01-08T17:49:50.368Z,98783.22
2023-01-08T17:52:18.461Z,98721.47
2023-01-08T17:54:48.041Z,98780.72
2023-01-08T17:57:17.956Z,98770.75
2023-01-08T17:59:46.068Z,98752.66
2023-01-08T18:02:18.055Z,98777.44
2023-01-08T18:04:46.436Z,98732.75
2023-01-08T18:07:14.512Z,98767.91
2023-01-08T18:09:42.524Z,98775.00
2023-01-08T18:12:10.826Z,98777.72
2023-01-08T18:14:41.442Z,98771.13
2023-01-08T18:17:09.321Z,98680.06
2023-01-08T18:19:37.267Z,98754.19
2023-01-08T18:22:05.132Z,98732.75
2023-01-08T18:24:34.343Z,98753.06
2023-01-08T18:27:02.506Z,98756.75
2023-01-08T18:29:30.710Z,98734.03
2023-01-08T18:32:00.406Z,98757.59
2023-01-08T18:34:28.456Z,98757.38
2023-01-08T18:36:56.263Z,98666.91
2023-01-08T18:39:26.590Z,98753.75
2023-01-08T18:42:12.179Z,98678.75
2023-01-08T18:44:40.012Z,98752.28
2023-01-08T18:47:10.538Z,98698.09
2023-01-08T18:49:38.632Z,98754.84
2023-01-08T18:52:06.403Z,98751.88
2023-01-08T18:54:35.396Z,98753.59
2023-01-08T18:57:03.513Z,98759.72
2023-01-08T18:59:31.491Z,98752.88
2023-01-08T19:01:59.674Z,98737.03
2023-01-08T19:04:29.333Z,98741.09
2023-01-08T19:06:57.238Z,98737.97
2023-01-08T19:09:25.227Z,98740.72
2023-01-08T19:11:53.111Z,98733.22
2023-01-08T19:14:21.039Z,98716.91
2023-01-08T19:16:51.422Z,98714.00
2023-01-08T19:19:19.503Z,98714.53
2023-01-08T19:21:49.107Z,98729.94
2023-01-08T19:24:16.941Z,98724.59
2023-01-08T19:26:44.951Z,98704.59
2023-01-08T19:29:13.480Z,98723.72
2023-01-08T19:31:41.698Z,98723.09
2023-01-08T19:34:11.575Z,98703.59
2023-01-08T19:36:39.549Z,98718.88
2023-01-08T19:39:11.208Z,98623.53
2023-01-08T19:41:56.849Z,98713.31
2023-01-08T19:44:24.891Z,98692.00
2023-01-08T19:46:52.911Z,98680.63
2023-01-08T19:49:20.878Z,98705.78
2023-01-08T19:51:48.889Z,98687.31
2023-01-08T19:54:18.920Z,98674.75
2023-01-08T19:56:46.823Z,98689.47
2023-01-08T19:59:14.679Z,98648.38
2023-01-08T20:01:42.924Z,98681.81
2023-01-08T20:04:11.574Z,98677.50
2023-01-08T20:06:39.473Z,98676.50
2023-01-08T20:09:09.045Z,98564.66
2023-01-08T20:11:38.320Z,98678.13
2023-01-08T20:14:06.221Z,98677.66
2023-01-08T20:16:34.257Z,98610.66
2023-01-08T20:19:04.499Z,98678.59
2023-01-08T20:21:32.618Z,98664.56
2023-01-08T20:24:03.374Z,98666.03
2023-01-08T20:26:32.778Z,98664.78
2023-01-08T20:29:02.071Z,98652.16
2023-01-08T20:31:31.284Z,98558.06
2023-01-08T20:34:01.380Z,98612.16
2023-01-08T20:36:32.407Z,98617.25
2023-01-08T20:39:02.197Z,98602.72
2023-01-08T20:41:30.571Z,98638.38
2023-01-08T20:43:58.783Z,98639.03
2023-01-08T20:46:30.292Z,98642.47
2023-01-08T20:49:01.237Z,98636.75
2023-01-08T20:51:29.306Z,98639.25
2023-01-08T20:53:57.243Z,98638.06
2023-01-08T20:56:25.033Z,98643.97
2023-01-08T20:58:53.107Z,98643.41
2023-01-08T21:01:23.240Z,98612.56
2023-01-08T21:03:54.860Z,98639.34
2023-01-08T21:06:24.977Z,98630.72
2023-01-08T21:08:55.311Z,98628.59
2023-01-08T21:11:23.852Z,98628.78
2023-01-08T21:13:52.134Z,98627.25
2023-01-08T21:16:23.359Z,98620.19
2023-01-08T21:18:54.169Z,98611.63
2023-01-08T21:21:24.162Z,98614.72
2023-01-08T21:23:52.527Z,98620.31
2023-01-08T21:26:20.581Z,98590.22
2023-01-08T21:28:49.781Z,98600.72
2023-01-08T21:31:19.247Z,98560.94
2023-01-08T21:33:48.923Z,98591.34
2023-01-08T21:36:20.045Z,98577.09
2023-01-08T21:38:48.428Z,98559.53
2023-01-08T21:41:32.390Z,98576.00
2023-01-08T21:44:18.044Z,98543.94
2023-01-08T21:46:46.562Z,98572.19
2023-01-08T21:49:14.523Z,98560.81
2023-01-08T21:52:01.617Z,98561.19
2023-01-08T21:54:29.455Z,98556.75
2023-01-08T21:56:57.484Z,98551.78
2023-01-08T21:59:25.336Z,98526.19
2023-01-08T22:01:53.307Z,98541.00
2023-01-08T22:04:21.301Z,98543.50
2023-01-08T22:06:50.565Z,98513.22
2023-01-08T22:09:18.434Z,98541.31
2023-01-08T22:11:46.705Z,98531.31
2023-01-08T22:14:14.542Z,98525.91
2023-01-08T22:16:42.572Z,98496.41
2023-01-08T22:19:11.511Z,98510.94
2023-01-08T22:21:39.873Z,98513.97
2023-01-08T22:24:09.158Z,98522.06
2023-01-08T22:26:37.200Z,98478.34
2023-01-08T22:29:06.794Z,98495.91
2023-01-08T22:31:35.487Z,98481.97
2023-01-08T22:34:03.511Z,98470.63
2023-01-08T22:36:31.467Z,98457.19
2023-01-08T22:38:59.316Z,98475.91
2023-01-08T22:41:28.557Z,98436.41
2023-01-08T22:43:57.119Z,98454.06
2023-01-08T22:46:26.277Z,98464.66
2023-01-08T22:48:54.329Z,98445.84
2023-01-08T22:51:22.571Z,98462.78
2023-01-08T22:53:50.415Z,98462.50
2023-01-08T22:56:18.609Z,98452.25
2023-01-08T22:58:47.762Z,98431.47
2023-01-08T23:01:18.092Z,98460.09
2023-01-08T23:03:48.721Z,98455.44
2023-01-08T23:06:18.494Z,98446.50
2023-01-08T23:08:46.789Z,98422.94
2023-01-08T23:11:17.332Z,98438.50
2023-01-08T23:13:45.483Z,98427.25
2023-01-08T23:16:16.603Z,98428.34
2023-01-08T23:18:45.025Z,98431.72
2023-01-08T23:21:15.556Z,98428.09
2023-01-08T23:23:43.840Z,98400.31
2023-01-08T23:26:13.940Z,98420.50
2023-01-08T23:28:41.827Z,98413.19
2023-01-08T23:31:10.630Z,98411.56
2023-01-08T23:33:40.003Z,98411.38
2023-01-08T23:36:08.696Z,98405.31
2023-01-08T23:38:36.737Z,98393.09
2023-01-08T23:41:07.360Z,98410.47
2023-01-08T23:43:35.365Z,98401.09
2023-01-08T23:46:03.721Z,98395.81
2023-01-08T23:48:31.942Z,98410.88
2023-01-08T23:51:01.431Z,98402.28
2023-01-08T23:53:29.526Z,98403.66
2023-01-08T23:55:57.996Z,98401.94
2023-01-08T23:58:26.557Z,98398.53
